Time,TemperatureF,DewpointF,PressureIn,WindDirection,WindDirectionDegrees,WindSpeedMPH,WindSpeedGustMPH,Humidity,HourlyPrecipIn,Conditions,Clouds,dailyrainin,SolarRadiationWatts/m^2,SoftwareType,DateUTC
2013-04-23 00:00:00,20.0,16.0,30.30,SW,223,5.0,-999.0,85,-99.99,,,-99.99,0.000000,,2013-04-23 06:00:00,
2013-04-23 00:52:00,20.0,16.0,30.30,SW,223,5.0,-999.0,85,-99.99,,,-99.99,0.000000,,2013-04-23 06:52:00,
2013-04-23 02:00:00,20.0,14.0,30.26,SW,219,5.0,-999.0,77,-99.99,,,-99.99,0.000000,,2013-04-23 08:00:00,
2013-04-23 02:52:00,20.0,14.0,30.26,SW,219,5.0,-999.0,77,-99.99,,,-99.99,0.000000,,2013-04-23 08:52:00,
2013-04-23 03:00:00,19.0,13.0,30.25,SW,221,5.0,-999.0,77,-99.99,,,-99.99,0.000000,,2013-04-23 09:00:00,
2013-04-23 03:53:00,19.0,13.0,30.25,SW,221,5.0,-999.0,77,-99.99,,,-99.99,0.000000,,2013-04-23 09:53:00,
2013-04-23 04:00:00,19.0,13.0,30.23,SW,219,5.0,-999.0,77,-99.99,,,-99.99,0.000000,,2013-04-23 10:00:00,
2013-04-23 04:52:00,19.0,13.0,30.23,SW,219,5.0,-999.0,77,-99.99,,,-99.99,0.000000,,2013-04-23 10:52:00,
2013-04-23 05:00:00,19.0,13.0,30.22,SW,221,5.0,-999.0,77,-99.99,,,-99.99,0.000000,,2013-04-23 11:00:00,
2013-04-23 05:53:00,19.0,13.0,30.22,SW,221,5.0,-999.0,77,-99.99,,,-99.99,0.000000,,2013-04-23 11:53:00,
2013-04-23 06:00:00,21.0,13.0,30.20,SW,224,5.0,-999.0,72,-99.99,,,-99.99,0.000000,,2013-04-23 12:00:00,
2013-04-23 06:52:00,21.0,13.0,30.20,SW,224,5.0,-999.0,72,-99.99,,,-99.99,0.000000,,2013-04-23 12:52:00,
2013-04-23 07:00:00,23.0,14.0,30.20,SW,231,7.0,-999.0,70,-99.99,,,-99.99,18.230000,,2013-04-23 13:00:00,
2013-04-23 07:52:00,23.0,14.0,30.20,SW,231,7.0,-999.0,70,-99.99,,,-99.99,18.230000,,2013-04-23 13:52:00,
2013-04-23 08:00:00,29.0,17.0,30.20,SW,234,6.0,-999.0,60,-99.99,,,-99.99,156.699997,,2013-04-23 14:00:00,
2013-04-23 08:52:00,29.0,17.0,30.20,SW,234,6.0,-999.0,60,-99.99,,,-99.99,156.699997,,2013-04-23 14:52:00,
2013-04-23 09:00:00,34.0,13.0,30.20,WSW,251,6.0,-999.0,41,-99.99,,,-99.99,316.000000,,2013-04-23 15:00:00,
2013-04-23 09:53:00,34.0,13.0,30.20,WSW,251,6.0,-999.0,41,-99.99,,,-99.99,316.000000,,2013-04-23 15:53:00,
2013-04-23 10:00:00,37.0,15.0,30.18,West,266,7.0,-999.0,39,-99.99,,,-99.99,475.299988,,2013-04-23 16:00:00,
2013-04-23 10:53:00,37.0,15.0,30.18,West,266,7.0,-999.0,39,-99.99,,,-99.99,475.299988,,2013-04-23 16:53:00,
2013-04-23 11:00:00,40.0,15.0,30.17,WNW,290,12.0,-999.0,36,-99.99,,,-99.99,613.200012,,2013-04-23 17:00:00,
2013-04-23 11:53:00,40.0,15.0,30.17,WNW,290,12.0,-999.0,36,-99.99,,,-99.99,613.200012,,2013-04-23 17:53:00,
2013-04-23 12:00:00,42.0,14.0,30.17,NW,304,14.0,-999.0,32,-99.99,,,-99.99,719.400024,,2013-04-23 18:00:00,
2013-04-23 12:52:00,42.0,14.0,30.17,NW,304,14.0,-999.0,32,-99.99,,,-99.99,719.400024,,2013-04-23 18:52:00,
2013-04-23 13:00:00,42.0,13.0,30.16,NW,304,14.0,-999.0,30,-99.99,,,-99.99,735.799988,,2013-04-23 19:00:00,
2013-04-23 13:52:00,42.0,13.0,30.16,NW,304,14.0,-999.0,30,-99.99,,,-99.99,735.799988,,2013-04-23 19:52:00,
2013-04-23 14:00:00,44.0,16.0,30.14,WNW,294,17.0,-999.0,32,-99.99,,,-99.99,754.599976,,2013-04-23 20:00:00,
2013-04-23 14:52:00,44.0,16.0,30.14,WNW,294,17.0,-999.0,32,-99.99,,,-99.99,754.599976,,2013-04-23 20:52:00,
2013-04-23 15:00:00,45.0,17.0,30.14,WNW,296,19.0,-999.0,32,-99.99,,,-99.99,671.000000,,2013-04-23 21:00:00,
2013-04-23 15:52:00,45.0,17.0,30.14,WNW,296,19.0,-999.0,32,-99.99,,,-99.99,671.000000,,2013-04-23 21:52:00,
2013-04-23 16:00:00,45.0,14.0,30.13,WNW,296,22.0,-999.0,28,-99.99,,,-99.99,668.299988,,2013-04-23 22:00:00,
2013-04-23 16:52:00,45.0,14.0,30.13,WNW,296,22.0,-999.0,28,-99.99,,,-99.99,668.299988,,2013-04-23 22:52:00,
2013-04-23 17:00:00,38.0,24.0,30.15,NW,306,20.0,-999.0,56,-99.99,,,-99.99,294.399994,,2013-04-23 23:00:00,
2013-04-23 17:52:00,38.0,24.0,30.15,NW,306,20.0,-999.0,56,-99.99,,,-99.99,294.399994,,2013-04-23 23:52:00,